createdAt,value
2019-03-31T00:02:55.307Z,78.89
2019-03-31T00:07:59.964Z,76.50
2019-03-31T00:13:08.101Z,80.78
2019-03-31T00:18:16.072Z,80.56
2019-03-31T00:23:25.736Z,78.75
2019-03-31T00:28:32.800Z,75.22
2019-03-31T00:33:39.162Z,77.00
2019-03-31T00:38:49.792Z,75.78
2019-03-31T00:43:57.857Z,74.56
2019-03-31T00:49:02.455Z,79.00
2019-03-31T00:54:11.231Z,70.87
2019-03-31T00:59:20.182Z,70.87
2019-03-31T01:04:26.666Z,67.25
2019-03-31T01:09:35.626Z,67.12
2019-03-31T01:14:45.847Z,74.89
2019-03-31T01:19:56.784Z,78.11
2019-03-31T01:24:59.967Z,72.00
2019-03-31T01:30:05.264Z,74.25
2019-03-31T01:35:10.972Z,72.00
2019-03-31T01:40:15.623Z,70.25
2019-03-31T01:45:22.089Z,69.75
2019-03-31T01:50:29.274Z,73.89
2019-03-31T01:55:33.927Z,71.75
2019-03-31T02:00:41.160Z,73.89
2019-03-31T02:05:45.914Z,76.25
2019-03-31T02:10:54.013Z,75.22
2019-03-31T02:16:00.462Z,73.12
2019-03-31T02:21:09.460Z,72.37
2019-03-31T02:26:15.672Z,71.00
2019-03-31T02:31:24.611Z,76.12
2019-03-31T02:36:29.291Z,73.25
2019-03-31T02:41:37.583Z,75.11
2019-03-31T02:46:45.129Z,77.33
2019-03-31T02:51:56.083Z,77.00
2019-03-31T02:57:05.817Z,77.44
2019-03-31T03:02:12.091Z,71.25
2019-03-31T03:07:19.776Z,74.11
2019-03-31T03:12:29.987Z,71.67
2019-03-31T03:17:34.815Z,71.50
2019-03-31T03:22:45.214Z,70.12
2019-03-31T03:27:54.191Z,70.00
2019-03-31T03:33:15.020Z,71.00
2019-03-31T03:38:07.765Z,69.37
2019-03-31T03:43:13.919Z,73.62
2019-03-31T03:48:20.253Z,70.00
2019-03-31T03:53:29.799Z,75.44
2019-03-31T03:58:37.033Z,78.00
2019-03-31T04:03:46.592Z,76.56
2019-03-31T04:08:53.810Z,77.00
2019-03-31T04:14:04.151Z,74.89
2019-03-31T04:19:07.760Z,75.75
2019-03-31T04:24:13.013Z,73.43
2019-03-31T04:29:17.389Z,69.25
2019-03-31T04:34:25.350Z,71.50
2019-03-31T04:39:32.231Z,71.25
2019-03-31T04:44:37.237Z,60.71
2019-03-31T04:49:44.700Z,52.78
2019-03-31T04:54:50.738Z,50.75
2019-03-31T04:59:57.829Z,47.75
2019-03-31T05:05:07.147Z,47.62
2019-03-31T05:10:13.906Z,47.00
2019-03-31T05:15:18.858Z,46.75
2019-03-31T05:20:22.325Z,45.00
2019-03-31T05:25:30.618Z,49.50
2019-03-31T05:30:37.455Z,55.50
2019-03-31T05:35:42.483Z,56.00
2019-03-31T05:40:46.580Z,56.00
2019-03-31T05:45:53.502Z,53.13
2019-03-31T05:51:02.859Z,56.89
2019-03-31T05:56:11.410Z,55.00
2019-03-31T06:01:16.241Z,57.00
2019-03-31T06:06:20.038Z,67.40
2019-03-31T06:11:31.753Z,61.30
2019-03-31T06:16:42.436Z,67.00
2019-03-31T06:21:52.628Z,66.60
2019-03-31T06:27:02.649Z,74.56
2019-03-31T06:32:10.310Z,70.89
2019-03-31T06:37:15.866Z,64.50
2019-03-31T06:42:23.402Z,61.00
2019-03-31T06:47:32.542Z,65.00
2019-03-31T06:52:46.619Z,68.14
2019-03-31T06:57:58.099Z,72.21
2019-03-31T07:03:06.550Z,68.18
2019-03-31T07:08:17.294Z,65.89
2019-03-31T07:13:23.439Z,67.00
2019-03-31T07:18:36.239Z,71.00
2019-03-31T07:23:45.486Z,59.88
2019-03-31T07:28:49.734Z,58.00
2019-03-31T07:33:54.246Z,53.50
2019-03-31T07:38:58.392Z,53.00
2019-03-31T07:44:02.219Z,45.00
2019-03-31T07:49:05.485Z,48.33
2019-03-31T07:54:11.391Z,49.75
2019-03-31T07:59:15.175Z,44.00
2019-03-31T08:04:21.522Z,52.00
2019-03-31T08:09:27.914Z,55.00
2019-03-31T08:14:31.794Z,55.75
2019-03-31T08:19:37.550Z,49.00
2019-03-31T08:24:41.554Z,50.00
2019-03-31T08:29:55.428Z,47.00
2019-03-31T08:34:55.955Z,51.63
2019-03-31T08:40:05.502Z,45.12
2019-03-31T08:45:12.672Z,45.14
2019-03-31T08:50:16.689Z,47.00
2019-03-31T08:55:20.659Z,47.00
2019-03-31T09:00:28.758Z,41.29
2019-03-31T09:05:33.186Z,37.50
2019-03-31T09:10:40.980Z,45.57
2019-03-31T09:15:47.742Z,34.88
2019-03-31T09:20:51.847Z,41.75
2019-03-31T09:25:56.226Z,42.50
2019-03-31T09:31:02.052Z,46.88
2019-03-31T09:36:16.122Z,42.38
2019-03-31T09:41:16.126Z,35.63
2019-03-31T09:46:23.168Z,39.00
2019-03-31T09:51:30.646Z,40.50
2019-03-31T09:56:36.242Z,36.14
2019-03-31T10:01:44.398Z,31.50
2019-03-31T10:06:51.262Z,35.50
2019-03-31T10:11:54.999Z,34.40
2019-03-31T10:16:58.446Z,45.00
2019-03-31T10:22:06.814Z,39.38
2019-03-31T10:27:11.203Z,55.00
2019-03-31T10:32:16.831Z,37.88
2019-03-31T10:37:22.798Z,39.63
2019-03-31T10:42:29.936Z,39.63
2019-03-31T10:47:35.659Z,45.86
2019-03-31T10:52:42.823Z,33.13
2019-03-31T10:57:48.419Z,38.14
2019-03-31T11:02:54.810Z,30.43
2019-03-31T11:08:04.650Z,30.75
2019-03-31T11:13:11.276Z,42.13
2019-03-31T11:18:15.570Z,31.00
2019-03-31T11:23:21.621Z,32.50
2019-03-31T11:28:26.555Z,24.67
2019-03-31T11:33:32.798Z,26.37
2019-03-31T11:38:40.596Z,30.00
2019-03-31T11:43:48.987Z,33.25
2019-03-31T11:48:52.687Z,21.33
2019-03-31T11:53:57.752Z,23.57
2019-03-31T11:59:03.942Z,22.75
2019-03-31T12:04:09.103Z,22.00
2019-03-31T12:09:16.918Z,25.50
2019-03-31T12:14:19.840Z,24.67
2019-03-31T12:19:27.086Z,23.00
2019-03-31T12:24:35.883Z,23.50
2019-03-31T12:29:43.723Z,27.25
2019-03-31T12:34:49.048Z,26.29
2019-03-31T12:39:56.624Z,39.86
2019-03-31T12:45:07.018Z,30.64
2019-03-31T12:50:10.476Z,35.00
2019-03-31T12:55:14.269Z,29.00
2019-03-31T13:00:20.083Z,30.43
2019-03-31T13:05:28.421Z,28.00
2019-03-31T13:10:35.310Z,24.71
2019-03-31T13:15:38.979Z,28.00
2019-03-31T13:20:42.430Z,24.00
2019-03-31T13:25:47.712Z,25.00
2019-03-31T13:30:52.314Z,31.67
2019-03-31T13:35:57.527Z,29.33
2019-03-31T13:41:02.738Z,31.00
2019-03-31T13:46:07.298Z,44.00
2019-03-31T13:51:14.138Z,44.00
2019-03-31T13:56:22.187Z,42.86
2019-03-31T14:01:28.521Z,32.14
2019-03-31T14:06:33.931Z,30.00
2019-03-31T14:11:40.235Z,34.75
2019-03-31T14:16:44.573Z,36.50
2019-03-31T14:21:53.939Z,30.86
2019-03-31T14:26:59.980Z,35.00
2019-03-31T14:32:03.609Z,33.25
2019-03-31T14:37:07.742Z,39.50
2019-03-31T14:42:12.062Z,32.75
2019-03-31T14:47:16.159Z,36.25
2019-03-31T14:52:27.269Z,25.33
2019-03-31T14:57:27.023Z,29.25
2019-03-31T15:02:34.815Z,32.00
2019-03-31T15:07:38.299Z,25.00
2019-03-31T15:12:44.567Z,33.00
2019-03-31T15:17:48.208Z,31.67
2019-03-31T15:22:53.083Z,34.14
2019-03-31T15:28:01.881Z,29.44
2019-03-31T15:33:09.787Z,29.00
2019-03-31T15:38:17.742Z,30.00
2019-03-31T15:43:23.518Z,29.14
2019-03-31T15:48:29.433Z,23.29
2019-03-31T15:53:35.262Z,32.29
2019-03-31T15:58:38.954Z,42.33
2019-03-31T16:03:44.839Z,23.38
2019-03-31T16:08:50.308Z,23.43
2019-03-31T16:13:53.520Z,41.67
2019-03-31T16:18:56.658Z,26.67
2019-03-31T16:24:02.922Z,29.63
2019-03-31T16:29:08.157Z,19.57
2019-03-31T16:34:14.830Z,21.14
2019-03-31T16:39:20.047Z,22.00
2019-03-31T16:44:27.094Z,22.37
2019-03-31T16:49:34.459Z,25.37
2019-03-31T16:54:41.923Z,22.37
2019-03-31T16:59:48.391Z,32.63
2019-03-31T17:04:51.594Z,22.33
2019-03-31T17:09:54.980Z,24.00
2019-03-31T17:15:00.404Z,21.29
2019-03-31T17:20:10.534Z,25.67
2019-03-31T17:25:14.003Z,33.00
2019-03-31T17:30:18.364Z,31.00
2019-03-31T17:35:24.474Z,38.13
2019-03-31T17:45:32.776Z,35.38
2019-03-31T17:50:36.792Z,32.25
2019-03-31T17:55:40.866Z,41.00
2019-03-31T18:00:44.863Z,42.00
2019-03-31T18:05:48.974Z,49.67
2019-03-31T18:11:01.382Z,46.56
2019-03-31T18:16:09.741Z,66.18
2019-03-31T18:21:15.994Z,44.56
2019-03-31T18:26:20.907Z,46.00
2019-03-31T18:31:35.661Z,44.17
2019-03-31T18:36:49.026Z,50.85
2019-03-31T18:41:59.647Z,47.47
2019-03-31T18:47:03.385Z,47.00
2019-03-31T18:52:11.248Z,43.20
2019-03-31T18:57:23.817Z,48.27
2019-03-31T19:02:31.151Z,50.00
2019-03-31T19:07:58.374Z,43.00
2019-03-31T19:13:02.205Z,47.33
2019-03-31T19:18:06.753Z,42.00
2019-03-31T19:23:10.371Z,47.00
2019-03-31T19:28:14.935Z,38.50
2019-03-31T19:33:18.792Z,38.00
2019-03-31T19:38:23.440Z,46.25
2019-03-31T19:43:26.845Z,35.00
2019-03-31T19:48:32.638Z,39.88
2019-03-31T19:53:38.855Z,39.50
2019-03-31T19:58:46.057Z,44.88
2019-03-31T20:03:54.600Z,42.56
2019-03-31T20:09:01.075Z,36.43
2019-03-31T20:14:09.080Z,29.86
2019-03-31T20:19:13.894Z,61.00
2019-03-31T20:24:37.978Z,37.00
2019-03-31T20:29:42.210Z,52.50
2019-03-31T20:34:45.855Z,47.00
2019-03-31T20:39:57.869Z,58.18
2019-03-31T20:45:02.428Z,37.50
2019-03-31T20:50:08.811Z,32.63
2019-03-31T20:55:17.434Z,46.37
2019-03-31T21:00:24.350Z,42.00
2019-03-31T21:05:33.734Z,37.88
2019-03-31T21:10:42.280Z,30.62
2019-03-31T21:15:49.353Z,40.00
2019-03-31T21:20:58.027Z,45.88
2019-03-31T21:26:06.695Z,43.50
2019-03-31T21:31:14.537Z,33.14
2019-03-31T21:36:20.572Z,39.00
2019-03-31T21:41:23.773Z,39.00
2019-03-31T21:46:30.039Z,38.75
2019-03-31T21:51:37.093Z,32.38
2019-03-31T21:56:44.065Z,35.63
2019-03-31T22:01:52.752Z,33.38
2019-03-31T22:06:56.239Z,27.67
2019-03-31T22:12:02.018Z,32.75
2019-03-31T22:17:05.215Z,46.00
2019-03-31T22:22:10.184Z,28.29
2019-03-31T22:27:13.966Z,29.50
2019-03-31T22:32:20.294Z,30.17
2019-03-31T22:37:27.775Z,29.37
2019-03-31T22:42:31.106Z,27.33
2019-03-31T22:47:38.723Z,27.00
2019-03-31T22:52:42.562Z,28.25
2019-03-31T22:57:45.969Z,24.50
2019-03-31T23:02:53.629Z,25.37
2019-03-31T23:07:57.708Z,25.75
2019-03-31T23:13:04.095Z,28.62
2019-03-31T23:18:09.331Z,22.43
2019-03-31T23:23:16.986Z,24.25
2019-03-31T23:28:24.763Z,25.86
2019-03-31T23:33:28.914Z,22.50
2019-03-31T23:38:36.498Z,23.50
2019-03-31T23:43:42.372Z,22.29
2019-03-31T23:48:45.811Z,35.25
2019-03-31T23:53:52.412Z,14.00
2019-03-31T23:58:59.004Z,22.57
